CST,Max TemperatureF,Mean TemperatureF,Min TemperatureF,Max Dew PointF,MeanDew PointF,Min DewpointF,Max Humidity, Mean Humidity, Min Humidity, Max Sea Level PressureIn, Mean Sea Level PressureIn, Min Sea Level PressureIn, Max VisibilityMiles, Mean VisibilityMiles, Min VisibilityMiles, Max Wind SpeedMPH, Mean Wind SpeedMPH, Max Gust SpeedMPH,PrecipitationIn, CloudCover, Events, WindDirDegrees
2013-12-1,55,41,26,34,30,24,100,73,46,30.14,30.03,29.84,10,7,3,9,3,11,0.00,0,,158
2013-12-2,62,47,31,33,32,29,92,64,36,29.82,29.65,29.52,10,9,6,17,8,20,0.00,1,,217
2013-12-3,54,44,34,34,32,30,89,68,46,29.67,29.57,29.49,10,9,5,21,11,23,0.00,2,,346
2013-12-4,35,25,15,32,19,6,100,81,61,30.21,29.80,29.63,10,7,2,26,17,33,T,7,Rain-Snow,335
2013-12-5,16,12,8,9,-1,-6,73,58,42,30.49,30.36,30.14,10,10,10,24,13,31,0.00,3,,344
2013-12-6,14,8,2,-5,-6,-7,68,55,42,30.75,30.61,30.48,10,10,10,18,11,23,0.00,6,,12
2013-12-7,18,7,-4,10,-1,-8,84,62,39,30.78,30.59,30.28,10,8,2,15,8,19,0.04,4,Snow,81
2013-12-8,21,13,4,16,13,3,100,92,84,30.32,30.08,29.94,10,3,1,15,7,20,0.15,7,Snow,75
2013-12-9,16,7,-3,3,-2,-7,96,69,42,30.48,30.36,30.26,10,10,7,21,8,27,0.00,1,,256
2013-12-10,35,24,13,20,12,4,69,52,35,30.34,30.23,30.15,10,10,10,21,10,27,0.00,0,,213
2013-12-11,33,20,8,19,6,1,73,57,40,30.71,30.56,30.32,10,10,10,24,9,30,0.00,1,,18
2013-12-12,42,28,13,24,16,2,69,59,49,30.55,30.33,30.08,10,10,10,18,10,25,0.00,0,,202
2013-12-13,40,30,19,31,23,17,92,81,69,30.07,29.95,29.83,10,6,4,22,8,26,0.00,2,,42
2013-12-14,29,24,18,22,18,14,92,80,68,30.30,30.22,30.04,10,7,4,23,11,27,0.00,4,,324
2013-12-15,55,36,16,27,24,17,91,63,35,30.20,30.07,29.98,10,10,7,18,10,20,0.00,1,,251
2013-12-16,60,46,31,32,28,24,82,56,29,30.20,30.07,29.99,10,10,10,14,7,16,0.00,0,,280
2013-12-17,49,38,26,30,24,19,92,63,34,30.37,30.26,30.14,10,10,10,22,9,27,0.00,0,,252
2013-12-18,63,49,35,31,26,21,59,41,23,30.10,29.84,29.70,10,10,10,24,15,31,0.00,0,,208
2013-12-19,48,32,16,32,26,13,84,67,50,29.91,29.74,29.65,10,10,8,28,11,34,0.00,5,,23
2013-12-20,20,16,12,14,11,8,88,78,67,30.07,29.98,29.87,10,8,3,25,11,32,T,8,Snow,347
2013-12-21,26,22,17,21,18,14,96,82,68,29.92,29.80,29.70,10,5,0,20,8,24,0.31,6,Fog-Snow,14
2013-12-22,27,19,10,20,14,8,92,74,55,30.44,30.15,29.85,10,9,2,22,10,27,0.01,4,Snow,343
2013-12-23,17,13,9,10,7,4,92,73,54,30.68,30.55,30.42,10,6,1,16,7,23,0.03,7,Snow,2
2013-12-24,27,19,10,26,19,5,100,85,70,30.53,30.24,30.08,10,3,1,24,12,33,0.00,8,,177
2013-12-25,44,32,20,27,23,20,100,73,45,30.38,30.35,30.32,10,10,4,20,10,26,0.00,0,,271
2013-12-26,50,39,28,25,22,20,69,53,36,30.31,30.24,30.18,10,10,10,17,10,23,0.00,0,,239
2013-12-27,54,42,29,30,25,21,75,55,35,30.32,30.24,30.12,10,10,10,22,11,26,0.00,0,,223
2013-12-28,50,37,24,31,27,16,82,62,42,30.15,29.98,29.81,10,10,10,33,13,46,0.00,2,,218
2013-12-29,24,16,7,11,-3,-10,68,48,28,30.46,30.36,30.19,10,10,10,31,16,39,0.00,3,,359
2013-12-30,48,28,8,23,11,-2,69,53,37,30.33,30.24,30.15,10,10,10,22,10,26,0.00,2,,218
2013-12-31,53,36,18,26,21,14,84,57,30,30.34,30.11,29.99,10,10,10,36,11,44,0.00,0,,180